Time;durP1;ratioP1;P1;durP2;ratioP2;P2;SDS_P1;SDS_P2;PMS_P1;PMS_P2;Temp;Humidity;BMP_temperature;BMP_pressure;BME280_temperature;BME280_humidity;BME280_pressure;Samples;Min_cycle;Max_cycle;Signal;HPM_P1;HPM_P2
2021/05/22 00:01:17;;;;;;;2.85;1.10;;;11.70;96.20;;;;;;5013232;28;20523;-77
2021/05/22 00:03:45;;;;;;;7.65;1.33;;;11.70;96.10;;;;;;4999215;28;20226;-77
2021/05/22 00:06:12;;;;;;;2.90;1.60;;;11.70;96.20;;;;;;5012703;28;20188;-78
2021/05/22 00:08:39;;;;;;;5.80;1.20;;;11.70;96.40;;;;;;5011746;28;20226;-78
2021/05/22 00:11:06;;;;;;;2.47;0.88;;;11.70;96.40;;;;;;4998393;28;20275;-77
2021/05/22 00:13:32;;;;;;;1.73;0.83;;;11.70;96.50;;;;;;4992038;28;20612;-78
2021/05/22 00:15:59;;;;;;;6.63;1.53;;;11.70;96.90;;;;;;4994060;28;20591;-78
2021/05/22 00:18:26;;;;;;;3.70;1.08;;;11.70;96.60;;;;;;4981264;28;20467;-78
2021/05/22 00:20:53;;;;;;;1.20;0.90;;;11.70;97.10;;;;;;5006666;28;20671;-78
2021/05/22 00:23:20;;;;;;;5.03;1.60;;;11.60;97.20;;;;;;5011560;28;20476;-77
2021/05/22 00:25:47;;;;;;;3.80;1.23;;;11.60;97.30;;;;;;5009443;28;20192;-78
2021/05/22 00:28:14;;;;;;;3.53;0.95;;;11.60;97.00;;;;;;5011352;28;20754;-78
2021/05/22 00:30:40;;;;;;;2.73;0.80;;;11.60;97.00;;;;;;4998591;28;20223;-78
2021/05/22 00:33:07;;;;;;;2.00;1.20;;;11.70;96.90;;;;;;4990724;28;20993;-78
2021/05/22 00:35:34;;;;;;;2.13;1.50;;;11.70;96.70;;;;;;5003255;28;20445;-78
2021/05/22 00:38:01;;;;;;;4.53;2.00;;;11.70;96.60;;;;;;4995528;28;20457;-78
2021/05/22 00:40:28;;;;;;;4.40;2.05;;;11.60;96.60;;;;;;4992379;28;20282;-78
2021/05/22 00:42:55;;;;;;;3.22;1.10;;;11.60;96.20;;;;;;5009605;28;20206;-78
2021/05/22 00:45:23;;;;;;;1.50;1.10;;;11.60;96.40;;;;;;5011659;28;20239;-78
2021/05/22 00:47:54;;;;;;;6.03;1.70;;;11.60;96.10;;;;;;4995782;28;20546;-77
2021/05/22 00:50:25;;;;;;;4.05;1.00;;;11.60;96.00;;;;;;4991493;28;20225;-77
2021/05/22 00:52:52;;;;;;;2.43;1.17;;;11.60;95.90;;;;;;5006221;28;20207;-77
2021/05/22 00:55:20;;;;;;;4.22;1.58;;;11.60;95.80;;;;;;5009773;28;20445;-77
2021/05/22 00:57:47;;;;;;;3.38;1.15;;;11.60;95.80;;;;;;5011472;28;20208;-77
2021/05/22 01:00:17;;;;;;;4.63;1.58;;;11.60;95.80;;;;;;5009728;28;20210;-78
2021/05/22 01:02:45;;;;;;;3.45;1.30;;;11.60;95.60;;;;;;5018868;28;20192;-78
2021/05/22 01:05:13;;;;;;;6.68;1.17;;;11.60;95.60;;;;;;4994442;28;20574;-77
2021/05/22 01:07:41;;;;;;;2.53;1.15;;;11.60;95.60;;;;;;5011495;28;20289;-78
2021/05/22 01:10:08;;;;;;;4.72;0.82;;;11.60;95.70;;;;;;5002258;28;20210;-77
2021/05/22 01:12:41;;;;;;;3.83;1.48;;;11.60;95.70;;;;;;4991991;28;20285;-78
2021/05/22 01:15:14;;;;;;;2.60;1.20;;;11.50;95.40;;;;;;4996608;28;20228;-77
2021/05/22 01:17:48;;;;;;;3.75;1.40;;;11.50;95.50;;;;;;4990627;28;20504;-77
2021/05/22 01:20:41;;;;;;;3.40;1.30;;;11.50;95.30;;;;;;5003488;28;20300;-77
2021/05/22 01:23:20;;;;;;;2.78;1.25;;;11.50;95.30;;;;;;5026330;28;20479;-78
2021/05/22 01:25:51;;;;;;;2.58;1.02;;;11.50;95.00;;;;;;5010459;28;20200;-77
2021/05/22 01:28:18;;;;;;;1.30;0.80;;;11.50;95.00;;;;;;5016085;28;20225;-77
2021/05/22 01:30:46;;;;;;;4.75;1.05;;;11.40;94.80;;;;;;5015335;28;20189;-77
2021/05/22 01:33:14;;;;;;;2.60;1.25;;;11.40;94.80;;;;;;5013530;28;20241;-77
2021/05/22 01:35:42;;;;;;;3.92;0.93;;;11.30;94.60;;;;;;5013963;28;20188;-78
2021/05/22 01:38:09;;;;;;;2.63;1.33;;;11.30;94.70;;;;;;5013194;28;20807;-78
2021/05/22 01:40:37;;;;;;;4.38;1.45;;;11.40;94.50;;;;;;4994077;28;20285;-77
2021/05/22 01:43:06;;;;;;;2.85;1.58;;;11.30;94.30;;;;;;4999773;28;20250;-78
2021/05/22 01:45:40;;;;;;;9.55;1.60;;;11.30;94.20;;;;;;5015216;28;20193;-78
2021/05/22 01:48:11;;;;;;;4.57;1.00;;;11.30;94.00;;;;;;4998412;28;20204;-77
2021/05/22 01:50:43;;;;;;;4.88;1.30;;;11.30;93.80;;;;;;4995467;28;20566;-77
2021/05/22 01:53:12;;;;;;;8.25;1.75;;;11.30;93.90;;;;;;5009686;28;20225;-78
2021/05/22 01:55:40;;;;;;;2.97;1.00;;;11.30;93.70;;;;;;5001489;28;20269;-77
2021/05/22 01:58:10;;;;;;;5.65;1.60;;;11.30;93.40;;;;;;5012159;28;20686;-78
2021/05/22 02:00:39;;;;;;;2.92;1.40;;;11.30;93.70;;;;;;5004007;28;20193;-77
2021/05/22 02:03:22;;;;;;;6.00;1.33;;;11.30;93.50;;;;;;4993971;28;20214;-77
2021/05/22 02:05:52;;;;;;;1.80;0.80;;;11.30;93.50;;;;;;5004908;28;20944;-77
2021/05/22 02:08:22;;;;;;;3.75;1.10;;;11.20;93.50;;;;;;5013409;28;20219;-77
2021/05/22 02:10:52;;;;;;;4.15;1.15;;;11.20;93.70;;;;;;4989258;28;20176;-78
2021/05/22 02:13:19;;;;;;;1.73;1.40;;;11.20;93.60;;;;;;4994599;28;20594;-77
2021/05/22 02:15:56;;;;;;;4.30;1.17;;;11.20;93.70;;;;;;4987168;28;20195;-78
2021/05/22 02:18:24;;;;;;;1.25;0.73;;;11.20;93.80;;;;;;4995152;28;20309;-77
2021/05/22 02:20:57;;;;;;;5.65;1.33;;;11.10;93.70;;;;;;4994762;28;20184;-77
2021/05/22 02:23:26;;;;;;;3.08;1.90;;;11.20;93.80;;;;;;5009497;28;20229;-78
2021/05/22 02:25:55;;;;;;;4.53;1.05;;;11.10;93.90;;;;;;4999025;28;20596;-78
2021/05/22 02:28:23;;;;;;;2.95;1.25;;;11.10;94.00;;;;;;5008276;28;20311;-78
2021/05/22 02:30:50;;;;;;;2.28;0.95;;;11.10;94.10;;;;;;5014126;28;20175;-78
2021/05/22 02:33:19;;;;;;;2.67;1.20;;;11.10;94.20;;;;;;4988228;28;20236;-78
2021/05/22 02:35:48;;;;;;;2.30;0.82;;;11.10;94.30;;;;;;4974476;28;20559;-78
2021/05/22 02:38:21;;;;;;;3.67;1.00;;;11.10;94.30;;;;;;4997781;28;20281;-78
2021/05/22 02:40:52;;;;;;;3.22;1.10;;;11.00;94.40;;;;;;4986183;28;20195;-78
2021/05/22 02:43:20;;;;;;;6.22;1.25;;;11.10;94.30;;;;;;5011851;28;20226;-77
2021/05/22 02:45:49;;;;;;;3.70;1.30;;;11.10;94.00;;;;;;4995436;28;20214;-78
2021/05/22 02:48:18;;;;;;;2.30;1.50;;;11.10;94.10;;;;;;4992706;28;20591;-78
2021/05/22 02:50:49;;;;;;;3.10;1.05;;;11.10;94.00;;;;;;5011161;28;20192;-78
2021/05/22 02:53:21;;;;;;;4.85;1.52;;;11.10;94.00;;;;;;5013105;28;20250;-77
2021/05/22 02:55:49;;;;;;;4.18;1.55;;;11.00;94.00;;;;;;5012431;28;20193;-78
2021/05/22 02:58:17;;;;;;;4.57;1.17;;;11.00;94.10;;;;;;5012536;28;20318;-78
2021/05/22 03:00:44;;;;;;;8.27;1.40;;;11.00;94.20;;;;;;5014011;28;20202;-78
2021/05/22 03:03:11;;;;;;;8.40;1.20;;;11.00;94.20;;;;;;4988994;28;20216;-77
2021/05/22 03:05:41;;;;;;;3.25;1.20;;;11.00;94.20;;;;;;4989785;28;20612;-78
2021/05/22 03:08:08;;;;;;;2.13;1.00;;;11.00;94.20;;;;;;5006604;28;20206;-77
2021/05/22 03:10:36;;;;;;;5.10;1.25;;;10.90;94.70;;;;;;5011441;28;20268;-78
2021/05/22 03:13:05;;;;;;;5.32;1.30;;;10.90;94.40;;;;;;5012556;28;20204;-78
2021/05/22 03:15:32;;;;;;;6.00;1.90;;;10.90;94.50;;;;;;5003493;28;20195;-78
2021/05/22 03:17:59;;;;;;;4.97;1.50;;;10.90;94.60;;;;;;5002510;28;20603;-78
2021/05/22 03:20:26;;;;;;;7.65;1.77;;;10.90;94.60;;;;;;5012539;28;20272;-78
2021/05/22 03:22:55;;;;;;;4.53;1.33;;;10.90;94.60;;;;;;5012812;28;20248;-77
2021/05/22 03:25:22;;;;;;;2.83;1.40;;;10.90;94.70;;;;;;5011371;28;20215;-78
2021/05/22 03:27:49;;;;;;;6.55;1.23;;;10.90;94.70;;;;;;5012564;28;20212;-77
2021/05/22 03:30:16;;;;;;;4.78;1.48;;;10.90;94.50;;;;;;5012039;28;20214;-78
2021/05/22 03:32:43;;;;;;;4.88;1.25;;;10.90;94.60;;;;;;5011774;28;20296;-78
2021/05/22 03:35:10;;;;;;;2.60;1.60;;;10.90;94.60;;;;;;5022186;28;20306;-78
2021/05/22 03:37:38;;;;;;;3.13;1.05;;;10.90;94.40;;;;;;5009502;28;20217;-78
2021/05/22 03:40:06;;;;;;;5.35;1.85;;;10.90;94.30;;;;;;4984330;28;20657;-77
2021/05/22 03:42:34;;;;;;;5.45;2.05;;;10.90;94.40;;;;;;4994286;28;20194;-77
2021/05/22 03:45:01;;;;;;;5.82;1.63;;;10.90;94.70;;;;;;5007478;28;20216;-78
2021/05/22 03:47:28;;;;;;;5.38;1.58;;;11.00;94.60;;;;;;5002535;28;20214;-77
2021/05/22 03:49:55;;;;;;;3.30;1.55;;;11.00;94.60;;;;;;4992451;28;20489;-77
2021/05/22 03:52:22;;;;;;;5.85;1.42;;;11.00;94.30;;;;;;5008312;28;20187;-78
2021/05/22 03:54:50;;;;;;;5.18;1.60;;;11.00;94.30;;;;;;4998289;28;20309;-78
2021/05/22 03:57:17;;;;;;;4.38;1.95;;;11.10;94.30;;;;;;4986759;28;20301;-78
2021/05/22 03:59:44;;;;;;;4.00;1.30;;;11.10;94.40;;;;;;4992257;28;20242;-78
2021/05/22 04:02:11;;;;;;;2.55;1.35;;;11.10;94.20;;;;;;4992881;28;20225;-78
2021/05/22 04:04:38;;;;;;;3.03;1.40;;;11.10;94.30;;;;;;4999347;28;20219;-78
2021/05/22 04:07:05;;;;;;;4.93;1.27;;;11.10;94.40;;;;;;5027259;28;20285;-77
2021/05/22 04:09:32;;;;;;;3.80;1.52;;;11.10;94.30;;;;;;5017571;28;20262;-77
2021/05/22 04:11:59;;;;;;;6.32;1.55;;;11.10;94.50;;;;;;5005430;28;20660;-78
2021/05/22 04:14:26;;;;;;;3.50;1.70;;;11.10;94.60;;;;;;5002268;28;20248;-78
2021/05/22 04:16:53;;;;;;;3.05;1.88;;;11.10;94.50;;;;;;4973421;28;20282;-78
2021/05/22 04:19:20;;;;;;;6.22;1.33;;;11.20;94.50;;;;;;4990116;28;20227;-77
2021/05/22 04:21:47;;;;;;;3.88;1.20;;;11.20;94.40;;;;;;4993080;28;20708;-77
2021/05/22 04:24:14;;;;;;;9.43;2.42;;;11.20;94.40;;;;;;5005107;28;20222;-77
2021/05/22 04:26:43;;;;;;;3.97;1.60;;;11.20;94.40;;;;;;4992742;28;20214;-78
2021/05/22 04:29:10;;;;;;;3.90;1.00;;;11.20;94.60;;;;;;4993032;28;20250;-78
2021/05/22 04:31:38;;;;;;;5.25;1.30;;;11.20;94.70;;;;;;4991848;28;20264;-77
2021/05/22 04:34:08;;;;;;;8.48;1.30;;;11.30;94.80;;;;;;5025042;28;20233;-77
2021/05/22 04:36:35;;;;;;;3.15;1.80;;;11.20;94.80;;;;;;5010116;28;20226;-78
2021/05/22 04:39:04;;;;;;;5.35;1.40;;;11.30;95.00;;;;;;5002602;28;20218;-78
2021/05/22 04:41:31;;;;;;;4.03;1.60;;;11.30;95.20;;;;;;4989986;28;20190;-77
2021/05/22 04:43:58;;;;;;;5.15;1.33;;;11.30;95.30;;;;;;4990910;28;20258;-77
2021/05/22 04:46:25;;;;;;;3.22;1.45;;;11.30;95.70;;;;;;5004674;28;20661;-77
2021/05/22 04:48:54;;;;;;;2.40;1.20;;;11.30;95.80;;;;;;4998618;28;20281;-78
2021/05/22 04:51:23;;;;;;;3.05;1.38;;;11.30;95.80;;;;;;5005248;28;20548;-78
2021/05/22 04:53:51;;;;;;;5.13;1.48;;;11.30;96.00;;;;;;5007872;28;20592;-78
2021/05/22 04:56:18;;;;;;;5.30;1.00;;;11.20;96.20;;;;;;4991515;28;20290;-77
2021/05/22 04:58:47;;;;;;;2.58;1.40;;;11.20;96.30;;;;;;4991197;28;20694;-78
2021/05/22 05:01:14;;;;;;;8.75;1.83;;;11.30;96.20;;;;;;5015610;28;20182;-78
2021/05/22 05:03:41;;;;;;;5.70;1.60;;;11.30;96.20;;;;;;5010289;28;20225;-78
2021/05/22 05:06:09;;;;;;;2.90;1.13;;;11.30;96.00;;;;;;5014590;28;20261;-78
2021/05/22 05:08:36;;;;;;;3.10;1.13;;;11.20;96.10;;;;;;4998565;28;20307;-77
2021/05/22 05:11:02;;;;;;;2.90;1.48;;;11.20;96.50;;;;;;5006975;28;20718;-77
2021/05/22 05:13:31;;;;;;;2.80;1.42;;;11.30;96.30;;;;;;5007714;28;20228;-78
2021/05/22 05:15:58;;;;;;;3.20;1.20;;;11.30;96.30;;;;;;5016950;28;20657;-78
2021/05/22 05:18:29;;;;;;;4.75;0.98;;;11.30;96.50;;;;;;4994782;28;20216;-78
2021/05/22 05:20:57;;;;;;;1.02;0.63;;;11.30;96.70;;;;;;4994748;28;20647;-78
2021/05/22 05:23:24;;;;;;;1.40;1.05;;;11.40;96.60;;;;;;4990883;28;20282;-78
2021/05/22 05:25:54;;;;;;;3.58;1.10;;;11.40;96.70;;;;;;4990029;28;20221;-78
2021/05/22 05:28:21;;;;;;;2.15;0.82;;;11.40;96.50;;;;;;5007947;28;20229;-77
2021/05/22 05:30:48;;;;;;;4.80;1.20;;;11.50;96.40;;;;;;5014957;28;20656;-78
2021/05/22 05:33:15;;;;;;;3.08;0.82;;;11.50;96.40;;;;;;4999841;28;20551;-77
2021/05/22 05:35:42;;;;;;;2.38;1.10;;;11.50;96.20;;;;;;4994977;28;20243;-78
2021/05/22 05:38:09;;;;;;;3.15;0.88;;;11.60;95.80;;;;;;4995570;28;20692;-78
2021/05/22 05:40:37;;;;;;;2.50;0.93;;;11.60;96.10;;;;;;4998756;28;20221;-78
2021/05/22 05:43:06;;;;;;;2.90;1.00;;;11.70;95.80;;;;;;4996362;28;20218;-78
2021/05/22 05:45:33;;;;;;;2.95;0.90;;;11.70;95.60;;;;;;5031468;28;20237;-76
2021/05/22 05:48:00;;;;;;;5.78;1.67;;;11.80;95.10;;;;;;5029111;28;20281;-78
2021/05/22 05:50:27;;;;;;;1.90;0.80;;;11.80;95.30;;;;;;4991268;28;20203;-78
2021/05/22 05:52:54;;;;;;;1.63;0.82;;;11.90;95.20;;;;;;4995952;28;20187;-78
2021/05/22 05:55:24;;;;;;;3.60;0.80;;;11.90;95.60;;;;;;5003409;28;20193;-78
2021/05/22 05:57:56;;;;;;;2.88;0.90;;;12.00;94.90;;;;;;5003698;28;20457;-78
2021/05/22 06:00:28;;;;;;;5.50;1.20;;;12.10;94.40;;;;;;5014547;28;20284;-78
2021/05/22 06:02:55;;;;;;;1.73;0.77;;;12.20;94.00;;;;;;4986122;28;20546;-78
2021/05/22 06:05:21;;;;;;;3.00;1.33;;;12.20;93.70;;;;;;4994998;28;20508;-77
2021/05/22 06:07:53;;;;;;;4.00;1.23;;;12.30;93.30;;;;;;5014467;28;20810;-78
2021/05/22 06:10:22;;;;;;;1.90;0.90;;;12.30;92.70;;;;;;5005318;28;20483;-77
2021/05/22 06:12:49;;;;;;;2.70;1.10;;;12.40;92.70;;;;;;5004793;28;20434;-78
2021/05/22 06:17:44;;;;;;;5.10;1.53;;;12.40;92.20;;;;;;4997025;28;20499;-78
2021/05/22 06:20:12;;;;;;;3.73;1.23;;;12.50;92.10;;;;;;5010698;28;20543;-78
2021/05/22 06:22:39;;;;;;;2.47;1.00;;;12.40;92.10;;;;;;5029083;28;21006;-78
2021/05/22 06:25:08;;;;;;;1.10;0.83;;;12.40;91.60;;;;;;5016431;28;20843;-78
2021/05/22 06:27:35;;;;;;;4.13;1.27;;;12.50;91.10;;;;;;4999619;28;20449;-78
2021/05/22 06:30:09;;;;;;;4.23;1.43;;;12.50;91.30;;;;;;5013479;28;20457;-78
2021/05/22 06:32:36;;;;;;;3.03;0.83;;;12.50;91.00;;;;;;5006207;28;20441;-78
2021/05/22 06:35:04;;;;;;;3.37;0.80;;;12.50;91.10;;;;;;4983250;28;20529;-78
2021/05/22 06:37:31;;;;;;;3.57;1.30;;;12.50;91.10;;;;;;5029112;28;20835;-78
2021/05/22 06:40:00;;;;;;;2.50;1.00;;;12.50;90.40;;;;;;4994866;28;20477;-78
2021/05/22 06:42:32;;;;;;;4.80;1.10;;;12.40;90.40;;;;;;5001108;28;20437;-77
2021/05/22 06:45:07;;;;;;;2.50;1.10;;;12.30;90.10;;;;;;4998449;28;20474;-78
2021/05/22 06:47:34;;;;;;;3.10;1.40;;;12.30;90.40;;;;;;4982391;28;21072;-78
2021/05/22 06:50:02;;;;;;;3.25;1.10;;;12.20;90.90;;;;;;5002567;28;20468;-78
2021/05/22 06:52:29;;;;;;;2.63;1.07;;;12.10;91.60;;;;;;5004867;28;20199;-78
2021/05/22 06:54:59;;;;;;;5.10;2.20;;;12.00;93.90;;;;;;4976467;28;20901;-78
2021/05/22 06:57:26;;;;;;;1.80;1.23;;;11.90;96.80;;;;;;4979311;28;20482;-78
2021/05/22 06:59:56;;;;;;;5.45;1.58;;;11.80;97.40;;;;;;4994554;28;20245;-79
2021/05/22 07:02:31;;;;;;;3.70;1.30;;;11.70;97.80;;;;;;5010850;28;20278;-79
2021/05/22 07:04:59;;;;;;;1.77;1.60;;;11.70;98.30;;;;;;4985947;28;20221;-79
2021/05/22 07:07:26;;;;;;;3.80;1.10;;;11.70;98.90;;;;;;5016992;28;20210;-79
2021/05/22 07:09:53;;;;;;;2.85;1.35;;;11.70;98.30;;;;;;5004363;28;20206;-78
2021/05/22 07:12:22;;;;;;;6.32;1.75;;;11.80;98.20;;;;;;5013180;28;20185;-79
2021/05/22 07:14:52;;;;;;;6.53;1.25;;;11.80;98.70;;;;;;4995442;28;20258;-79
2021/05/22 07:17:19;;;;;;;4.78;1.40;;;11.70;98.90;;;;;;5007524;28;20659;-79
2021/05/22 07:19:46;;;;;;;4.38;1.80;;;11.70;99.50;;;;;;5012326;28;20529;-79
2021/05/22 07:22:13;;;;;;;4.93;1.33;;;11.70;98.60;;;;;;5011174;28;20194;-79
2021/05/22 07:24:41;;;;;;;3.25;1.17;;;11.60;98.60;;;;;;4998666;28;20216;-79
2021/05/22 07:27:08;;;;;;;1.58;1.08;;;11.60;99.80;;;;;;4997884;28;20210;-78
2021/05/22 07:29:38;;;;;;;2.72;0.90;;;11.60;99.90;;;;;;4993174;28;20216;-79
2021/05/22 07:32:05;;;;;;;2.90;1.42;;;11.60;99.90;;;;;;5000373;28;20184;-79
2021/05/22 07:34:35;;;;;;;4.80;2.00;;;11.50;99.90;;;;;;5006442;28;20216;-79
2021/05/22 07:37:01;;;;;;;4.35;1.40;;;11.40;99.90;;;;;;5002698;28;20200;-79
2021/05/22 07:39:32;;;;;;;3.45;1.05;;;11.50;99.90;;;;;;5001591;28;20236;-80
2021/05/22 07:41:59;;;;;;;6.40;1.33;;;11.50;99.90;;;;;;4997752;28;20190;-79
2021/05/22 07:44:29;;;;;;;3.70;1.00;;;11.50;99.90;;;;;;4994243;28;20987;-78
2021/05/22 07:46:56;;;;;;;6.72;1.20;;;11.50;99.90;;;;;;4991618;28;20213;-79
2021/05/22 07:49:37;;;;;;;1.83;1.10;;;11.50;99.90;;;;;;5003732;28;20227;-79
2021/05/22 07:52:10;;;;;;;1.73;1.33;;;11.50;99.90;;;;;;5002059;28;20187;-78
2021/05/22 07:54:44;;;;;;;5.88;1.38;;;11.40;99.90;;;;;;4982306;28;20211;-79
2021/05/22 07:57:11;;;;;;;2.67;1.20;;;11.50;99.90;;;;;;4973424;28;20195;-79
2021/05/22 07:59:39;;;;;;;2.17;1.42;;;11.50;99.90;;;;;;4984549;28;20570;-79
2021/05/22 08:02:07;;;;;;;2.72;1.00;;;11.50;99.90;;;;;;4988313;28;20706;-78
2021/05/22 08:04:35;;;;;;;2.55;1.10;;;11.60;99.90;;;;;;5000075;28;20215;-78
2021/05/22 08:07:03;;;;;;;2.53;0.90;;;11.50;99.90;;;;;;4990049;28;20580;-78
2021/05/22 08:09:30;;;;;;;1.75;0.82;;;11.60;99.90;;;;;;4989538;28;20232;-78
2021/05/22 08:12:00;;;;;;;2.30;1.05;;;11.60;99.90;;;;;;5007654;28;20201;-79
2021/05/22 08:14:27;;;;;;;5.60;0.98;;;11.70;99.90;;;;;;4992101;28;20305;-79
2021/05/22 08:17:01;;;;;;;5.15;1.27;;;11.70;99.90;;;;;;4991504;28;20267;-78
2021/05/22 08:19:30;;;;;;;5.30;1.15;;;11.70;99.90;;;;;;4981884;28;20708;-79
2021/05/22 08:21:57;;;;;;;2.40;1.63;;;11.80;99.90;;;;;;4972029;28;20219;-78
2021/05/22 08:24:24;;;;;;;6.55;1.23;;;11.90;99.90;;;;;;4991505;28;20697;-79
2021/05/22 08:26:53;;;;;;;3.97;1.20;;;11.90;99.90;;;;;;5002684;28;20220;-78
2021/05/22 08:29:40;;;;;;;2.72;0.95;;;11.90;99.90;;;;;;5009637;28;20237;-78
2021/05/22 08:32:07;;;;;;;3.30;1.37;;;12.00;99.90;;;;;;5011042;28;20199;-79
2021/05/22 08:34:39;;;;;;;2.97;1.35;;;12.00;99.90;;;;;;5000117;28;20528;-79
2021/05/22 08:37:08;;;;;;;5.57;1.30;;;12.00;99.90;;;;;;4994230;28;20251;-78
2021/05/22 08:39:35;;;;;;;3.70;0.98;;;12.00;99.90;;;;;;4993744;28;20472;-79
2021/05/22 08:42:04;;;;;;;3.88;1.20;;;12.00;99.90;;;;;;5010533;28;20225;-79
2021/05/22 08:44:31;;;;;;;3.60;0.90;;;11.90;99.90;;;;;;5000704;28;20317;-79
2021/05/22 08:46:58;;;;;;;6.57;2.65;;;11.90;99.90;;;;;;5011787;28;20213;-79
2021/05/22 08:49:26;;;;;;;2.67;0.95;;;11.90;99.90;;;;;;5005961;28;20240;-79
2021/05/22 08:51:53;;;;;;;2.35;1.77;;;11.90;99.90;;;;;;5020102;28;20273;-79
2021/05/22 08:54:20;;;;;;;2.55;1.58;;;11.90;99.90;;;;;;5018789;28;20219;-78
2021/05/22 08:56:47;;;;;;;1.80;1.05;;;11.80;99.90;;;;;;4987751;28;20257;-79
2021/05/22 08:59:14;;;;;;;4.82;1.35;;;11.80;99.90;;;;;;5005574;28;20210;-79
2021/05/22 09:01:41;;;;;;;2.20;1.10;;;11.90;99.90;;;;;;4990969;28;20599;-79
2021/05/22 09:04:11;;;;;;;2.53;1.13;;;12.00;99.90;;;;;;4991127;28;20599;-78
2021/05/22 09:07:03;;;;;;;2.13;1.00;;;12.10;99.90;;;;;;4974756;28;20229;-79
2021/05/22 09:09:44;;;;;;;3.85;1.40;;;12.10;99.90;;;;;;4989940;28;20569;-78
2021/05/22 09:12:11;;;;;;;3.95;0.93;;;12.20;99.90;;;;;;4992231;28;20183;-78
2021/05/22 09:14:49;;;;;;;1.25;0.77;;;12.20;99.90;;;;;;4990392;28;20202;-79
2021/05/22 09:17:19;;;;;;;3.25;1.00;;;12.30;99.90;;;;;;4990491;28;20209;-78
2021/05/22 09:19:46;;;;;;;4.33;0.90;;;12.30;99.90;;;;;;5005955;28;20745;-79
2021/05/22 09:22:13;;;;;;;2.75;1.40;;;12.30;99.90;;;;;;5011824;28;20475;-78
2021/05/22 09:25:01;;;;;;;2.93;1.07;;;12.30;99.90;;;;;;4988252;28;20222;-78
2021/05/22 09:27:40;;;;;;;3.03;0.70;;;12.30;99.90;;;;;;4971239;28;20464;-78
2021/05/22 09:30:13;;;;;;;3.17;1.63;;;12.30;99.90;;;;;;5009924;28;20459;-78
2021/05/22 09:32:41;;;;;;;1.27;0.67;;;12.30;99.90;;;;;;4999057;28;20199;-78
2021/05/22 09:35:10;;;;;;;6.07;1.50;;;12.30;99.90;;;;;;5024640;28;20499;-78
2021/05/22 09:38:01;;;;;;;1.60;0.93;;;12.40;99.90;;;;;;5013318;28;20224;-77
2021/05/22 09:40:37;;;;;;;2.70;1.17;;;12.50;99.90;;;;;;5000517;28;20561;-77
2021/05/22 09:43:07;;;;;;;2.17;0.80;;;12.50;99.20;;;;;;4992813;28;20736;-78
2021/05/22 09:45:37;;;;;;;2.87;0.90;;;12.60;98.10;;;;;;5010516;28;20556;-77
2021/05/22 09:48:27;;;;;;;4.43;1.77;;;12.70;98.90;;;;;;4993474;28;20544;-77
2021/05/22 09:50:54;;;;;;;3.50;1.90;;;12.80;96.70;;;;;;4975851;28;20520;-77
2021/05/22 09:53:32;;;;;;;3.60;1.10;;;12.90;96.30;;;;;;4996533;28;20828;-77
2021/05/22 09:56:11;;;;;;;6.43;1.10;;;13.00;97.10;;;;;;4979306;28;20442;-78
2021/05/22 09:58:40;;;;;;;6.90;1.80;;;13.00;96.20;;;;;;5012135;28;20464;-77
2021/05/22 10:01:08;;;;;;;5.73;1.40;;;13.00;96.60;;;;;;5019251;28;20804;-78
2021/05/22 10:03:36;;;;;;;2.37;1.17;;;13.10;96.30;;;;;;5018081;28;20453;-77
2021/05/22 10:06:04;;;;;;;2.77;1.00;;;13.10;95.70;;;;;;5012790;28;20456;-77
2021/05/22 10:08:31;;;;;;;5.80;1.17;;;13.20;95.60;;;;;;5005509;28;20484;-78
2021/05/22 10:10:59;;;;;;;3.83;1.17;;;13.20;94.90;;;;;;5006592;28;20461;-77
2021/05/22 10:13:27;;;;;;;3.30;1.20;;;13.30;94.80;;;;;;5005931;28;20464;-77
2021/05/22 10:15:57;;;;;;;3.63;1.33;;;13.40;94.60;;;;;;4997272;28;20488;-77
2021/05/22 10:18:26;;;;;;;3.00;1.40;;;13.40;94.10;;;;;;4993410;28;20469;-78
2021/05/22 10:20:55;;;;;;;3.80;1.10;;;13.40;94.30;;;;;;5012973;28;20487;-77
2021/05/22 10:23:22;;;;;;;5.10;1.63;;;13.40;94.20;;;;;;5001839;28;20468;-77
2021/05/22 10:25:54;;;;;;;4.53;1.53;;;13.40;94.60;;;;;;4979980;28;20466;-77
2021/05/22 10:28:23;;;;;;;7.97;1.93;;;13.50;94.00;;;;;;4979079;28;20883;-78
2021/05/22 10:30:50;;;;;;;3.30;1.43;;;13.60;94.20;;;;;;4994823;28;20761;-77
2021/05/22 10:33:21;;;;;;;5.70;1.30;;;13.60;93.10;;;;;;4992696;28;20461;-78
2021/05/22 10:35:56;;;;;;;5.50;1.60;;;13.60;92.90;;;;;;4993897;28;20454;-78
2021/05/22 10:38:33;;;;;;;5.53;1.40;;;13.70;93.70;;;;;;4992671;28;20461;-78
2021/05/22 10:41:12;;;;;;;6.27;1.90;;;13.70;92.90;;;;;;4993828;28;20452;-78
2021/05/22 10:43:57;;;;;;;4.70;1.13;;;13.70;93.10;;;;;;4992450;28;20461;-78
2021/05/22 10:46:28;;;;;;;3.10;1.10;;;13.70;92.20;;;;;;5005243;28;20934;-77
2021/05/22 10:49:02;;;;;;;4.57;1.40;;;13.70;92.30;;;;;;5019743;28;20891;-78
2021/05/22 10:51:38;;;;;;;4.37;1.30;;;13.60;92.50;;;;;;5016546;28;20736;-78
2021/05/22 10:54:14;;;;;;;3.70;1.50;;;13.60;92.20;;;;;;5006602;28;20475;-78
2021/05/22 10:57:06;;;;;;;3.67;1.30;;;13.60;92.50;;;;;;5003731;28;20945;-77
2021/05/22 10:59:36;;;;;;;6.00;1.27;;;13.70;92.50;;;;;;5011539;28;20468;-78
2021/05/22 11:02:38;;;;;;;5.10;1.30;;;13.70;92.30;;;;;;5012544;28;20464;-78
2021/05/22 11:05:28;;;;;;;2.97;1.60;;;13.60;91.40;;;;;;4988521;28;20470;-78
2021/05/22 11:08:07;;;;;;;4.43;1.37;;;13.60;92.40;;;;;;5011377;28;20453;-78
2021/05/22 11:10:41;;;;;;;3.83;1.30;;;13.70;91.80;;;;;;4987269;28;20438;-77
2021/05/22 11:13:20;;;;;;;5.10;1.30;;;13.80;91.90;;;;;;5011880;28;20428;-78
2021/05/22 11:15:52;;;;;;;4.87;1.90;;;14.00;91.60;;;;;;4997798;28;20527;-77
2021/05/22 11:18:24;;;;;;;4.13;1.10;;;14.30;91.10;;;;;;4988628;28;20541;-78
2021/05/22 11:21:10;;;;;;;3.67;1.20;;;14.40;90.20;;;;;;5001856;28;20425;-78
2021/05/22 11:23:58;;;;;;;5.67;1.50;;;14.70;89.40;;;;;;4987116;28;20561;-79
2021/05/22 11:26:50;;;;;;;5.17;1.47;;;14.90;88.20;;;;;;4984741;28;20482;-77
2021/05/22 11:29:54;;;;;;;6.60;1.20;;;14.90;85.70;;;;;;5003818;28;20471;-77
2021/05/22 11:32:44;;;;;;;4.90;1.33;;;14.70;87.10;;;;;;4997895;28;20466;-78
2021/05/22 11:35:30;;;;;;;2.80;1.47;;;14.70;85.30;;;;;;5005561;28;20469;-78
2021/05/22 11:38:13;;;;;;;2.77;1.23;;;14.70;86.40;;;;;;5003975;28;20469;-78
2021/05/22 11:40:55;;;;;;;4.00;1.67;;;14.60;86.30;;;;;;4978788;28;20466;-78
2021/05/22 11:43:30;;;;;;;4.80;1.63;;;14.60;83.40;;;;;;4992803;28;20541;-78
2021/05/22 11:46:15;;;;;;;5.30;2.23;;;14.50;85.00;;;;;;5000348;28;20495;-78
2021/05/22 11:48:50;;;;;;;4.33;1.40;;;14.40;85.70;;;;;;5008519;28;20472;-78
2021/05/22 11:51:32;;;;;;;5.47;1.77;;;14.40;84.90;;;;;;4980572;28;20454;-78
2021/05/22 11:54:06;;;;;;;5.73;1.50;;;14.40;84.60;;;;;;4997326;28;20496;-78
2021/05/22 11:56:38;;;;;;;7.87;1.23;;;14.40;86.10;;;;;;5005609;28;20464;-78
2021/05/22 11:59:07;;;;;;;9.20;2.07;;;14.40;85.10;;;;;;4999873;28;20486;-78
2021/05/22 12:01:39;;;;;;;5.30;1.80;;;14.40;85.50;;;;;;4995549;28;20431;-78
2021/05/22 12:04:10;;;;;;;3.50;1.50;;;14.40;85.50;;;;;;4991361;28;20469;-78
2021/05/22 12:06:48;;;;;;;6.60;1.43;;;14.40;84.20;;;;;;4988205;28;20496;-78
2021/05/22 12:09:20;;;;;;;5.87;2.07;;;14.40;84.60;;;;;;5022347;28;20537;-78
2021/05/22 12:11:53;;;;;;;5.20;1.60;;;14.40;85.10;;;;;;4987920;28;20535;-78
2021/05/22 12:14:21;;;;;;;5.77;1.93;;;14.40;84.20;;;;;;5008585;28;21000;-78
2021/05/22 12:16:59;;;;;;;5.00;1.30;;;14.40;84.50;;;;;;4995235;28;20457;-79
2021/05/22 12:19:35;;;;;;;2.47;1.10;;;14.50;85.20;;;;;;4965996;28;20530;-78
2021/05/22 12:22:08;;;;;;;8.80;1.60;;;14.60;83.40;;;;;;5002105;28;20446;-78
2021/05/22 12:24:36;;;;;;;4.50;1.90;;;14.60;82.20;;;;;;4992650;28;20520;-78
2021/05/22 12:27:04;;;;;;;4.60;1.37;;;14.50;81.80;;;;;;4991565;28;20825;-78
2021/05/22 12:29:32;;;;;;;5.50;1.37;;;14.50;82.60;;;;;;5026453;28;20457;-79
2021/05/22 12:32:03;;;;;;;7.07;2.10;;;14.50;83.20;;;;;;5009956;28;20499;-78
2021/05/22 12:34:36;;;;;;;5.87;1.50;;;14.50;82.00;;;;;;5010935;28;20998;-78
2021/05/22 12:37:09;;;;;;;2.53;1.50;;;14.50;81.90;;;;;;5002988;28;20459;-78
2021/05/22 12:39:44;;;;;;;7.87;1.40;;;14.40;83.20;;;;;;4997453;28;20469;-78
2021/05/22 12:42:32;;;;;;;7.23;1.70;;;14.40;84.10;;;;;;4994588;28;20436;-78
2021/05/22 12:45:19;;;;;;;6.67;1.70;;;14.40;84.90;;;;;;4993409;28;21020;-78
2021/05/22 12:47:51;;;;;;;4.60;1.77;;;14.40;84.30;;;;;;4991921;28;20487;-78
2021/05/22 12:50:29;;;;;;;3.20;1.23;;;14.40;83.80;;;;;;4991110;28;20496;-78
2021/05/22 12:53:06;;;;;;;8.00;1.33;;;14.40;82.60;;;;;;4991586;28;20633;-78
2021/05/22 12:55:36;;;;;;;5.53;2.00;;;14.40;83.60;;;;;;5003308;28;20545;-78
2021/05/22 12:58:24;;;;;;;4.30;1.50;;;14.40;84.50;;;;;;4971731;28;20905;-78
2021/05/22 13:00:52;;;;;;;6.73;1.20;;;14.40;84.40;;;;;;4989965;28;20941;-78
2021/05/22 13:03:38;;;;;;;4.23;1.47;;;14.30;85.20;;;;;;4991888;28;20516;-78
2021/05/22 13:06:05;;;;;;;8.77;2.20;;;14.20;87.50;;;;;;5004156;28;20546;-78
2021/05/22 13:08:33;;;;;;;3.77;1.50;;;14.20;87.90;;;;;;4970690;28;20482;-78